sensor_id;sensor_type;location;lat;lon;timestamp;pressure;altitude;pressure_sealevel;temperature;humidity
3524;BME280;1776;53.330;11.498;2023-01-30T00:01:44;20506.25;;;-147.39;83.98
3524;BME280;1776;53.330;11.498;2023-01-30T00:04:10;20465.63;;;-147.39;84.35
3524;BME280;1776;53.330;11.498;2023-01-30T00:06:40;20443.28;;;-147.39;84.77
3524;BME280;1776;53.330;11.498;2023-01-30T00:09:05;20514.38;;;-147.39;84.37
3524;BME280;1776;53.330;11.498;2023-01-30T00:11:30;20498.13;;;-147.39;84.48
3524;BME280;1776;53.330;11.498;2023-01-30T00:13:57;20469.69;;;-147.39;84.66
3524;BME280;1776;53.330;11.498;2023-01-30T00:16:23;20528.59;;;-147.39;84.32
3524;BME280;1776;53.330;11.498;2023-01-30T00:18:48;20508.28;;;-147.39;84.35
3524;BME280;1776;53.330;11.498;2023-01-30T00:21:14;20469.69;;;-147.39;84.45
3524;BME280;1776;53.330;11.498;2023-01-30T00:23:40;20500.16;;;-147.39;83.97
3524;BME280;1776;53.330;11.498;2023-01-30T00:26:05;20510.31;;;-147.39;83.85
3524;BME280;1776;53.330;11.498;2023-01-30T00:28:31;20402.66;;;-147.39;83.88
3524;BME280;1776;53.330;11.498;2023-01-30T00:30:57;20573.28;;;-147.39;84.19
3524;BME280;1776;53.330;11.498;2023-01-30T00:33:23;20481.88;;;-147.39;84.00
3524;BME280;1776;53.330;11.498;2023-01-30T00:35:51;20534.69;;;-147.39;83.60
3524;BME280;1776;53.330;11.498;2023-01-30T00:38:17;20526.56;;;-147.39;83.62
3524;BME280;1776;53.330;11.498;2023-01-30T00:40:43;20542.81;;;-147.39;83.60
3524;BME280;1776;53.330;11.498;2023-01-30T00:43:13;20573.28;;;-147.39;83.93
3524;BME280;1776;53.330;11.498;2023-01-30T00:45:57;20325.44;;;-147.39;84.10
3524;BME280;1776;53.330;11.498;2023-01-30T00:48:40;20559.06;;;-147.39;83.52
3524;BME280;1776;53.330;11.498;2023-01-30T00:51:06;20252.31;;;-147.39;83.46
3524;BME280;1776;53.330;11.498;2023-01-30T00:53:31;20544.84;;;-147.39;83.59
3524;BME280;1776;53.330;11.498;2023-01-30T00:55:56;20538.75;;;-147.39;83.55
3524;BME280;1776;53.330;11.498;2023-01-30T00:58:22;20628.13;;;-147.39;83.35
3524;BME280;1776;53.330;11.498;2023-01-30T01:00:48;20429.06;;;-147.39;83.29
3524;BME280;1776;53.330;11.498;2023-01-30T01:03:14;20650.47;;;-147.39;83.56
3524;BME280;1776;53.330;11.498;2023-01-30T01:05:39;20561.09;;;-147.39;83.66
3524;BME280;1776;53.330;11.498;2023-01-30T01:08:05;20581.41;;;-147.39;83.24
3524;BME280;1776;53.330;11.498;2023-01-30T01:10:31;20585.47;;;-147.39;83.50
3524;BME280;1776;53.330;11.498;2023-01-30T01:12:57;20550.94;;;-147.39;83.50
3524;BME280;1776;53.330;11.498;2023-01-30T01:15:23;20526.56;;;-147.39;83.41
3524;BME280;1776;53.330;11.498;2023-01-30T01:17:50;20563.13;;;-147.39;83.57
3524;BME280;1776;53.330;11.498;2023-01-30T01:20:16;20563.13;;;-147.39;83.85
3524;BME280;1776;53.330;11.498;2023-01-30T01:22:41;20510.31;;;-147.39;84.06
3524;BME280;1776;53.330;11.498;2023-01-30T01:25:08;20522.50;;;-147.39;84.08
3524;BME280;1776;53.330;11.498;2023-01-30T01:27:34;20569.22;;;-147.39;83.83
3524;BME280;1776;53.330;11.498;2023-01-30T01:29:59;20524.53;;;-147.39;84.16
3524;BME280;1776;53.330;11.498;2023-01-30T01:32:25;20502.19;;;-147.39;83.89
3524;BME280;1776;53.330;11.498;2023-01-30T01:34:50;20483.91;;;-147.39;83.89
3524;BME280;1776;53.330;11.498;2023-01-30T01:37:15;20502.19;;;-147.39;84.18
3524;BME280;1776;53.330;11.498;2023-01-30T01:39:40;20518.44;;;-147.39;83.98
3524;BME280;1776;53.330;11.498;2023-01-30T01:42:25;20492.03;;;-147.39;84.13
3524;BME280;1776;53.330;11.498;2023-01-30T01:45:01;20477.81;;;-147.39;84.06
3524;BME280;1776;53.330;11.498;2023-01-30T01:47:27;20481.88;;;-147.39;83.97
3524;BME280;1776;53.330;11.498;2023-01-30T01:49:53;20552.97;;;-147.39;83.72
3524;BME280;1776;53.330;11.498;2023-01-30T01:52:19;20498.13;;;-147.39;83.91
3524;BME280;1776;53.330;11.498;2023-01-30T01:54:49;20762.22;;;-147.39;84.16
3524;BME280;1776;53.330;11.498;2023-01-30T01:57:21;20449.38;;;-147.39;83.91
3524;BME280;1776;53.330;11.498;2023-01-30T02:02:26;20463.59;;;-147.39;83.95
3524;BME280;1776;53.330;11.498;2023-01-30T02:04:54;20561.09;;;-147.39;84.20
3524;BME280;1776;53.330;11.498;2023-01-30T02:07:34;20516.41;;;-147.39;83.84
3524;BME280;1776;53.330;11.498;2023-01-30T02:10:01;20457.50;;;-147.39;84.02
3524;BME280;1776;53.330;11.498;2023-01-30T02:12:26;20469.69;;;-147.39;84.01
3524;BME280;1776;53.330;11.498;2023-01-30T02:14:52;20530.63;;;-147.39;83.66
3524;BME280;1776;53.330;11.498;2023-01-30T02:17:20;20518.44;;;-147.39;83.82
3524;BME280;1776;53.330;11.498;2023-01-30T02:19:57;20465.63;;;-147.39;83.99
3524;BME280;1776;53.330;11.498;2023-01-30T02:31:20;20504.22;;;-147.39;83.55
3524;BME280;1776;53.330;11.498;2023-01-30T02:33:53;20494.06;;;-147.39;83.60
3524;BME280;1776;53.330;11.498;2023-01-30T02:39:22;20500.16;;;-147.39;83.96
3524;BME280;1776;53.330;11.498;2023-01-30T02:45:09;20443.28;;;-147.39;84.13
3524;BME280;1776;53.330;11.498;2023-01-30T02:47:55;20490.00;;;-147.39;84.47
3524;BME280;1776;53.330;11.498;2023-01-30T02:50:32;20475.78;;;-147.39;84.49
3524;BME280;1776;53.330;11.498;2023-01-30T02:52:59;20443.28;;;-147.39;85.09
3524;BME280;1776;53.330;11.498;2023-01-30T02:55:26;20319.34;;;-147.39;85.26
3524;BME280;1776;53.330;11.498;2023-01-30T02:57:52;20451.41;;;-147.39;85.62
3524;BME280;1776;53.330;11.498;2023-01-30T03:00:22;20286.84;;;-147.39;85.87
3524;BME280;1776;53.330;11.498;2023-01-30T03:03:08;20256.38;;;-147.39;86.25
3524;BME280;1776;53.330;11.498;2023-01-30T03:11:15;20112.16;;;-147.39;86.69
3524;BME280;1776;53.330;11.498;2023-01-30T03:13:47;20104.03;;;-147.39;86.83
3524;BME280;1776;53.330;11.498;2023-01-30T03:16:25;20128.41;;;-147.39;87.09
3524;BME280;1776;53.330;11.498;2023-01-30T03:18:52;19980.16;;;-147.39;87.26
3524;BME280;1776;53.330;11.498;2023-01-30T03:21:18;20022.81;;;-147.39;87.63
3524;BME280;1776;53.330;11.498;2023-01-30T03:23:44;19911.09;;;-147.39;87.68
3524;BME280;1776;53.330;11.498;2023-01-30T03:26:16;19870.47;;;-147.39;87.53
3524;BME280;1776;53.330;11.498;2023-01-30T03:28:42;19854.22;;;-147.39;87.76
3524;BME280;1776;53.330;11.498;2023-01-30T03:31:09;19764.84;;;-147.39;87.85
3524;BME280;1776;53.330;11.498;2023-01-30T03:33:34;19738.44;;;-147.39;87.69
3524;BME280;1776;53.330;11.498;2023-01-30T03:35:59;19744.53;;;-147.39;87.88
3524;BME280;1776;53.330;11.498;2023-01-30T03:38:26;19764.84;;;-147.39;87.87
3524;BME280;1776;53.330;11.498;2023-01-30T03:40:51;18913.94;;;-147.39;88.33
3524;BME280;1776;53.330;11.498;2023-01-30T03:43:17;19610.50;;;-147.39;87.83
3524;BME280;1776;53.330;11.498;2023-01-30T03:45:42;19575.97;;;-147.39;88.17
3524;BME280;1776;53.330;11.498;2023-01-30T03:48:07;19604.41;;;-147.39;88.02
3524;BME280;1776;53.330;11.498;2023-01-30T03:50:32;19582.06;;;-147.39;88.21
3524;BME280;1776;53.330;11.498;2023-01-30T03:52:58;19464.28;;;-147.39;88.41
3524;BME280;1776;53.330;11.498;2023-01-30T03:55:23;19433.81;;;-147.39;88.33
3524;BME280;1776;53.330;11.498;2023-01-30T03:57:49;19431.78;;;-147.39;88.22
3524;BME280;1776;53.330;11.498;2023-01-30T04:00:18;19374.91;;;-147.39;88.50
3524;BME280;1776;53.330;11.498;2023-01-30T04:02:43;19421.63;;;-147.39;88.26
3524;BME280;1776;53.330;11.498;2023-01-30T04:05:09;19429.75;;;-147.39;88.21
3524;BME280;1776;53.330;11.498;2023-01-30T04:07:34;19370.84;;;-147.39;88.12
3524;BME280;1776;53.330;11.498;2023-01-30T04:09:59;19350.56;;;-147.39;88.00
3524;BME280;1776;53.330;11.498;2023-01-30T04:12:24;19340.41;;;-147.39;88.27
3524;BME280;1776;53.330;11.498;2023-01-30T04:14:50;19342.44;;;-147.39;87.83
3524;BME280;1776;53.330;11.498;2023-01-30T04:17:15;19338.38;;;-147.39;88.06
3524;BME280;1776;53.330;11.498;2023-01-30T04:19:40;19387.09;;;-147.39;88.07
3524;BME280;1776;53.330;11.498;2023-01-30T04:22:05;19381.00;;;-147.39;88.04
3524;BME280;1776;53.330;11.498;2023-01-30T04:24:31;19429.75;;;-147.39;87.96
3524;BME280;1776;53.330;11.498;2023-01-30T04:26:56;19060.16;;;-147.39;87.84
3524;BME280;1776;53.330;11.498;2023-01-30T04:29:21;19364.75;;;-147.39;88.18
3524;BME280;1776;53.330;11.498;2023-01-30T04:31:46;19334.31;;;-147.39;87.86
3524;BME280;1776;53.330;11.498;2023-01-30T04:34:12;19399.28;;;-147.39;87.91
3524;BME280;1776;53.330;11.498;2023-01-30T04:36:37;19456.16;;;-147.39;88.07
3524;BME280;1776;53.330;11.498;2023-01-30T04:39:02;19592.22;;;-147.39;87.86
3524;BME280;1776;53.330;11.498;2023-01-30T04:41:28;19356.66;;;-147.39;88.02
3524;BME280;1776;53.330;11.498;2023-01-30T04:43:53;19561.75;;;-147.39;87.85
3524;BME280;1776;53.330;11.498;2023-01-30T04:46:18;19604.41;;;-147.39;87.54
3524;BME280;1776;53.330;11.498;2023-01-30T04:48:44;19385.06;;;-147.39;87.44
3524;BME280;1776;53.330;11.498;2023-01-30T04:51:09;19352.59;;;-147.39;87.42
3524;BME280;1776;53.330;11.498;2023-01-30T04:53:34;19391.16;;;-147.39;87.73
3524;BME280;1776;53.330;11.498;2023-01-30T04:56:00;19464.28;;;-147.39;87.57
3524;BME280;1776;53.330;11.498;2023-01-30T04:58:25;19598.31;;;-147.39;87.58
3524;BME280;1776;53.330;11.498;2023-01-30T05:00:50;19366.78;;;-147.39;87.63
3524;BME280;1776;53.330;11.498;2023-01-30T05:03:16;19563.78;;;-147.39;87.49
3524;BME280;1776;53.330;11.498;2023-01-30T05:05:41;19484.59;;;-147.39;87.67
3524;BME280;1776;53.330;11.498;2023-01-30T05:08:09;19344.47;;;-147.39;87.93
3524;BME280;1776;53.330;11.498;2023-01-30T05:10:35;19344.47;;;-147.39;87.66
3524;BME280;1776;53.330;11.498;2023-01-30T05:13:01;19350.56;;;-147.39;88.26
3524;BME280;1776;53.330;11.498;2023-01-30T05:15:27;19366.78;;;-147.39;88.04
3524;BME280;1776;53.330;11.498;2023-01-30T05:17:52;19281.50;;;-147.39;88.03
3524;BME280;1776;53.330;11.498;2023-01-30T05:20:17;19279.47;;;-147.39;88.40
3524;BME280;1776;53.330;11.498;2023-01-30T05:22:42;19297.75;;;-147.39;88.10
3524;BME280;1776;53.330;11.498;2023-01-30T05:25:08;19214.50;;;-147.39;88.24
3524;BME280;1776;53.330;11.498;2023-01-30T05:27:33;19222.63;;;-147.39;88.34
3524;BME280;1776;53.330;11.498;2023-01-30T05:29:58;18989.09;;;-147.39;88.53
3524;BME280;1776;53.330;11.498;2023-01-30T05:32:24;19153.56;;;-147.39;88.52
3524;BME280;1776;53.330;11.498;2023-01-30T05:34:51;19147.47;;;-147.39;88.60
3524;BME280;1776;53.330;11.498;2023-01-30T05:37:16;19143.41;;;-147.39;88.60
3524;BME280;1776;53.330;11.498;2023-01-30T05:39:41;19119.03;;;-147.39;88.98
3524;BME280;1776;53.330;11.498;2023-01-30T05:42:07;18915.97;;;-147.39;88.90
3524;BME280;1776;53.330;11.498;2023-01-30T05:44:32;18698.72;;;-147.39;88.98
3524;BME280;1776;53.330;11.498;2023-01-30T05:46:57;18905.84;;;-147.39;89.21
3524;BME280;1776;53.330;11.498;2023-01-30T05:49:23;18962.69;;;-147.39;88.72
3524;BME280;1776;53.330;11.498;2023-01-30T05:51:48;19029.69;;;-147.39;88.88
3524;BME280;1776;53.330;11.498;2023-01-30T05:54:14;18668.25;;;-147.39;88.60
3524;BME280;1776;53.330;11.498;2023-01-30T05:56:39;19200.28;;;-147.39;88.33
3524;BME280;1776;53.330;11.498;2023-01-30T05:59:05;19143.41;;;-147.39;88.13
3524;BME280;1776;53.330;11.498;2023-01-30T06:01:30;19184.03;;;-147.39;88.16
3524;BME280;1776;53.330;11.498;2023-01-30T06:03:56;19208.41;;;-147.39;87.49
3524;BME280;1776;53.330;11.498;2023-01-30T06:06:23;19204.34;;;-147.39;87.53
3524;BME280;1776;53.330;11.498;2023-01-30T06:08:52;19177.94;;;-147.39;87.74
3524;BME280;1776;53.330;11.498;2023-01-30T06:11:18;19204.34;;;-147.39;87.74
3524;BME280;1776;53.330;11.498;2023-01-30T06:13:43;19218.56;;;-147.39;87.73
3524;BME280;1776;53.330;11.498;2023-01-30T06:16:11;19263.22;;;-147.39;87.53
3524;BME280;1776;53.330;11.498;2023-01-30T06:18:37;19289.63;;;-147.39;87.45
3524;BME280;1776;53.330;11.498;2023-01-30T06:21:03;19255.09;;;-147.39;87.11
3524;BME280;1776;53.330;11.498;2023-01-30T06:23:28;19318.06;;;-147.39;87.26
3524;BME280;1776;53.330;11.498;2023-01-30T06:25:54;19368.81;;;-147.39;86.84
3524;BME280;1776;53.330;11.498;2023-01-30T06:28:21;19381.00;;;-147.39;86.98
3524;BME280;1776;53.330;11.498;2023-01-30T06:30:47;19350.56;;;-147.39;86.71
3524;BME280;1776;53.330;11.498;2023-01-30T06:33:12;19427.72;;;-147.39;86.33
3524;BME280;1776;53.330;11.498;2023-01-30T06:35:39;19492.72;;;-147.39;86.12
3524;BME280;1776;53.330;11.498;2023-01-30T06:38:05;19472.41;;;-147.39;86.03
3524;BME280;1776;53.330;11.498;2023-01-30T06:40:30;19494.75;;;-147.39;86.15
3524;BME280;1776;53.330;11.498;2023-01-30T06:42:56;19504.91;;;-147.39;86.02
3524;BME280;1776;53.330;11.498;2023-01-30T06:45:21;19452.09;;;-147.39;86.12
3524;BME280;1776;53.330;11.498;2023-01-30T06:47:51;19492.72;;;-147.39;86.27
3524;BME280;1776;53.330;11.498;2023-01-30T06:50:19;19482.56;;;-147.39;86.04
3524;BME280;1776;53.330;11.498;2023-01-30T06:52:46;19515.03;;;-147.39;86.01
3524;BME280;1776;53.330;11.498;2023-01-30T06:55:14;19533.31;;;-147.39;85.83
3524;BME280;1776;53.330;11.498;2023-01-30T06:57:40;19626.75;;;-147.39;85.77
3524;BME280;1776;53.330;11.498;2023-01-30T07:00:08;19563.78;;;-147.39;85.78
3524;BME280;1776;53.330;11.498;2023-01-30T07:02:34;19604.41;;;-147.39;85.40
3524;BME280;1776;53.330;11.498;2023-01-30T07:05:01;19614.56;;;-147.39;85.45
3524;BME280;1776;53.330;11.498;2023-01-30T07:07:27;19606.44;;;-147.39;85.31
3524;BME280;1776;53.330;11.498;2023-01-30T07:09:52;19638.94;;;-147.39;85.67
3524;BME280;1776;53.330;11.498;2023-01-30T07:12:18;19677.53;;;-147.39;85.29
3524;BME280;1776;53.330;11.498;2023-01-30T07:14:44;19643.00;;;-147.39;84.98
3524;BME280;1776;53.330;11.498;2023-01-30T07:17:09;19720.16;;;-147.39;85.41
3524;BME280;1776;53.330;11.498;2023-01-30T07:19:34;19716.09;;;-147.39;85.40
3524;BME280;1776;53.330;11.498;2023-01-30T07:22:00;19722.19;;;-147.39;85.15
3524;BME280;1776;53.330;11.498;2023-01-30T07:24:25;19722.19;;;-147.39;85.05
3524;BME280;1776;53.330;11.498;2023-01-30T07:26:50;19831.88;;;-147.39;84.27
3524;BME280;1776;53.330;11.498;2023-01-30T07:29:15;19795.31;;;-147.39;84.16
3524;BME280;1776;53.330;11.498;2023-01-30T07:31:41;19858.28;;;-147.39;83.79
3524;BME280;1776;53.330;11.498;2023-01-30T07:34:06;19831.88;;;-147.39;83.88
3524;BME280;1776;53.330;11.498;2023-01-30T07:36:31;20073.59;;;-147.39;83.60
3524;BME280;1776;53.330;11.498;2023-01-30T07:38:59;19951.72;;;-147.39;83.54
3524;BME280;1776;53.330;11.498;2023-01-30T07:41:25;20102.00;;;-147.39;83.37
3524;BME280;1776;53.330;11.498;2023-01-30T07:43:51;19972.03;;;-147.39;83.67
3524;BME280;1776;53.330;11.498;2023-01-30T07:46:16;19500.84;;;-147.39;83.71
3524;BME280;1776;53.330;11.498;2023-01-30T07:48:43;19909.06;;;-147.39;83.88
3524;BME280;1776;53.330;11.498;2023-01-30T07:51:08;19937.50;;;-147.39;83.46
3524;BME280;1776;53.330;11.498;2023-01-30T07:53:34;20022.81;;;-147.39;83.31
3524;BME280;1776;53.330;11.498;2023-01-30T07:55:59;20006.56;;;-147.39;83.14
3524;BME280;1776;53.330;11.498;2023-01-30T07:58:29;20016.72;;;-147.39;83.21
3524;BME280;1776;53.330;11.498;2023-01-30T08:00:55;20053.28;;;-147.39;82.95
3524;BME280;1776;53.330;11.498;2023-01-30T08:03:20;20126.38;;;-147.39;82.35
3524;BME280;1776;53.330;11.498;2023-01-30T08:05:45;20146.69;;;-147.39;82.18
3524;BME280;1776;53.330;11.498;2023-01-30T08:08:11;20160.91;;;-147.39;81.79
3524;BME280;1776;53.330;11.498;2023-01-30T08:10:36;20362.00;;;-147.39;81.87
3524;BME280;1776;53.330;11.498;2023-01-30T08:13:01;20199.50;;;-147.39;82.29
3524;BME280;1776;53.330;11.498;2023-01-30T08:15:27;20049.22;;;-147.39;82.17
3524;BME280;1776;53.330;11.498;2023-01-30T08:17:53;20179.19;;;-147.39;82.30
3524;BME280;1776;53.330;11.498;2023-01-30T08:20:20;19974.06;;;-147.39;82.44
3524;BME280;1776;53.330;11.498;2023-01-30T08:22:45;20095.91;;;-147.39;82.03
3524;BME280;1776;53.330;11.498;2023-01-30T08:25:10;20229.97;;;-147.39;81.75
3524;BME280;1776;53.330;11.498;2023-01-30T08:27:36;20303.09;;;-147.39;81.64
3524;BME280;1776;53.330;11.498;2023-01-30T08:30:01;20272.63;;;-147.39;81.18
3524;BME280;1776;53.330;11.498;2023-01-30T08:32:26;20325.44;;;-147.39;80.79
3524;BME280;1776;53.330;11.498;2023-01-30T08:34:51;20402.66;;;-147.39;81.00
3524;BME280;1776;53.330;11.498;2023-01-30T08:37:17;19689.72;;;-147.39;80.95
3524;BME280;1776;53.330;11.498;2023-01-30T08:39:42;20382.34;;;-147.39;81.08
3524;BME280;1776;53.330;11.498;2023-01-30T08:42:07;20329.50;;;-147.39;80.85
3524;BME280;1776;53.330;11.498;2023-01-30T08:44:32;20394.53;;;-147.39;80.68
3524;BME280;1776;53.330;11.498;2023-01-30T08:46:58;20593.59;;;-147.39;80.70
3524;BME280;1776;53.330;11.498;2023-01-30T08:49:23;20412.81;;;-147.39;80.22
3524;BME280;1776;53.330;11.498;2023-01-30T08:51:48;20500.16;;;-147.39;79.49
3524;BME280;1776;53.330;11.498;2023-01-30T08:54:13;20530.63;;;-147.39;79.43
3524;BME280;1776;53.330;11.498;2023-01-30T08:56:39;20585.47;;;-147.39;79.32
3524;BME280;1776;53.330;11.498;2023-01-30T08:59:05;20620.00;;;-147.39;79.00
3524;BME280;1776;53.330;11.498;2023-01-30T09:01:31;20587.50;;;-147.39;79.30
3524;BME280;1776;53.330;11.498;2023-01-30T09:03:57;20585.47;;;-147.39;79.57
3524;BME280;1776;53.330;11.498;2023-01-30T09:06:22;20528.59;;;-147.39;80.39
3524;BME280;1776;53.330;11.498;2023-01-30T09:08:47;20498.13;;;-147.39;80.64
3524;BME280;1776;53.330;11.498;2023-01-30T09:11:13;20575.31;;;-147.39;81.18
3524;BME280;1776;53.330;11.498;2023-01-30T09:13:38;20439.22;;;-147.39;81.54
3524;BME280;1776;53.330;11.498;2023-01-30T09:16:08;20364.03;;;-147.39;81.66
3524;BME280;1776;53.330;11.498;2023-01-30T09:18:40;20357.94;;;-147.39;81.90
3524;BME280;1776;53.330;11.498;2023-01-30T09:21:06;20412.81;;;-147.39;81.73
3524;BME280;1776;53.330;11.498;2023-01-30T09:23:31;20567.19;;;-147.39;80.16
3524;BME280;1776;53.330;11.498;2023-01-30T09:25:57;20577.34;;;-147.39;79.90
3524;BME280;1776;53.330;11.498;2023-01-30T09:28:24;20615.94;;;-147.39;79.85
3524;BME280;1776;53.330;11.498;2023-01-30T09:30:49;20532.66;;;-147.39;80.34
3524;BME280;1776;53.330;11.498;2023-01-30T09:33:14;20615.94;;;-147.39;79.31
3524;BME280;1776;53.330;11.498;2023-01-30T09:35:46;20223.88;;;-147.39;78.02
3524;BME280;1776;53.330;11.498;2023-01-30T09:38:11;20788.63;;;-147.39;77.59
3524;BME280;1776;53.330;11.498;2023-01-30T09:40:47;20794.72;;;-147.39;77.97
3524;BME280;1776;53.330;11.498;2023-01-30T09:43:20;20685.00;;;-147.39;78.84
3524;BME280;1776;53.330;11.498;2023-01-30T09:48:41;20526.56;;;-147.39;81.13
3524;BME280;1776;53.330;11.498;2023-01-30T09:53:36;20526.56;;;-147.39;81.16
3524;BME280;1776;53.330;11.498;2023-01-30T09:56:04;20540.78;;;-147.39;80.90
3524;BME280;1776;53.330;11.498;2023-01-30T09:58:40;20646.41;;;-147.39;80.53
3524;BME280;1776;53.330;11.498;2023-01-30T10:01:18;20609.84;;;-147.39;80.05
3524;BME280;1776;53.330;11.498;2023-01-30T10:07:07;20601.72;;;-147.39;79.81
3524;BME280;1776;53.330;11.498;2023-01-30T10:15:14;20181.22;;;-147.39;80.02
3524;BME280;1776;53.330;11.498;2023-01-30T10:20:45;20620.00;;;-147.39;79.64
3524;BME280;1776;53.330;11.498;2023-01-30T10:23:37;20630.16;;;-147.39;80.09
3524;BME280;1776;53.330;11.498;2023-01-30T10:26:10;20682.97;;;-147.39;79.20
3524;BME280;1776;53.330;11.498;2023-01-30T10:28:44;20857.69;;;-147.39;78.95
3524;BME280;1776;53.330;11.498;2023-01-30T10:31:14;20776.44;;;-147.39;78.20
3524;BME280;1776;53.330;11.498;2023-01-30T10:33:55;20849.56;;;-147.39;77.05
3524;BME280;1776;53.330;11.498;2023-01-30T10:40:06;21170.56;;;-147.39;73.88
3524;BME280;1776;53.330;11.498;2023-01-30T10:42:44;21359.53;;;-147.39;73.92
3524;BME280;1776;53.330;11.498;2023-01-30T10:45:14;21408.28;;;-147.39;73.27
3524;BME280;1776;53.330;11.498;2023-01-30T10:51:14;21306.69;;;-147.39;74.03
3524;BME280;1776;53.330;11.498;2023-01-30T10:53:32;21353.44;;;-147.39;73.67
3524;BME280;1776;53.330;11.498;2023-01-30T10:56:21;21341.25;;;-147.39;73.75
3524;BME280;1776;53.330;11.498;2023-01-30T11:01:43;21446.91;;;-147.39;73.77
3524;BME280;1776;53.330;11.498;2023-01-30T11:04:40;21416.41;;;-147.39;73.42
3524;BME280;1776;53.330;11.498;2023-01-30T11:07:10;21383.91;;;-147.39;73.64
3524;BME280;1776;53.330;11.498;2023-01-30T11:09:45;21402.19;;;-147.39;73.39
3524;BME280;1776;53.330;11.498;2023-01-30T11:12:11;21440.78;;;-147.39;73.59
3524;BME280;1776;53.330;11.498;2023-01-30T11:14:56;21477.38;;;-147.39;72.83
3524;BME280;1776;53.330;11.498;2023-01-30T11:17:43;21469.25;;;-147.39;73.06
3524;BME280;1776;53.330;11.498;2023-01-30T11:20:23;21536.28;;;-147.39;72.33
3524;BME280;1776;53.330;11.498;2023-01-30T11:23:04;21511.91;;;-147.39;72.93
3524;BME280;1776;53.330;11.498;2023-01-30T11:25:29;21459.09;;;-147.39;73.28
3524;BME280;1776;53.330;11.498;2023-01-30T11:27:59;21518.00;;;-147.39;72.89
3524;BME280;1776;53.330;11.498;2023-01-30T11:30:30;21625.69;;;-147.39;72.91
3524;BME280;1776;53.330;11.498;2023-01-30T11:33:12;21450.97;;;-147.39;73.69
3524;BME280;1776;53.330;11.498;2023-01-30T11:35:52;21444.84;;;-147.39;74.32
3524;BME280;1776;53.330;11.498;2023-01-30T11:38:27;21353.44;;;-147.39;75.24
3524;BME280;1776;53.330;11.498;2023-01-30T11:43:32;21286.38;;;-147.39;76.13
3524;BME280;1776;53.330;11.498;2023-01-30T11:45:58;20735.78;;;-147.39;76.55
3524;BME280;1776;53.330;11.498;2023-01-30T11:48:29;21245.75;;;-147.39;76.86
3524;BME280;1776;53.330;11.498;2023-01-30T11:51:05;21219.31;;;-147.39;76.96
3524;BME280;1776;53.330;11.498;2023-01-30T11:53:35;21284.34;;;-147.39;77.34
3524;BME280;1776;53.330;11.498;2023-01-30T11:58:57;21138.06;;;-147.39;77.24
3524;BME280;1776;53.330;11.498;2023-01-30T12:01:28;20999.91;;;-147.39;77.04
3524;BME280;1776;53.330;11.498;2023-01-30T12:03:55;21190.88;;;-147.39;77.49
3524;BME280;1776;53.330;11.498;2023-01-30T12:06:36;21123.84;;;-147.39;77.95
3524;BME280;1776;53.330;11.498;2023-01-30T12:09:02;21119.78;;;-147.39;78.59
3524;BME280;1776;53.330;11.498;2023-01-30T12:11:40;21107.59;;;-147.39;78.70
3524;BME280;1776;53.330;11.498;2023-01-30T12:14:20;21036.47;;;-147.39;79.79
3524;BME280;1776;53.330;11.498;2023-01-30T12:17:02;20955.22;;;-147.39;80.23
3524;BME280;1776;53.330;11.498;2023-01-30T12:19:42;21032.41;;;-147.39;80.06
3524;BME280;1776;53.330;11.498;2023-01-30T12:25:00;20957.25;;;-147.39;79.84
3524;BME280;1776;53.330;11.498;2023-01-30T12:27:42;20961.31;;;-147.39;80.01
3524;BME280;1776;53.330;11.498;2023-01-30T12:32:41;20924.72;;;-147.39;80.31
3524;BME280;1776;53.330;11.498;2023-01-30T12:35:15;20997.88;;;-147.39;80.77
3524;BME280;1776;53.330;11.498;2023-01-30T13:05:17;21008.03;;;-147.39;78.62
3524;BME280;1776;53.330;11.498;2023-01-30T13:07:58;21081.16;;;-147.39;77.90
3524;BME280;1776;53.330;11.498;2023-01-30T13:16:03;21125.88;;;-147.39;77.59
3524;BME280;1776;53.330;11.498;2023-01-30T13:18:40;21172.59;;;-147.39;77.76
3524;BME280;1776;53.330;11.498;2023-01-30T13:21:14;21097.44;;;-147.39;77.81
3524;BME280;1776;53.330;11.498;2023-01-30T13:23:51;21058.81;;;-147.39;77.70
3524;BME280;1776;53.330;11.498;2023-01-30T13:26:35;21081.16;;;-147.39;77.88
3524;BME280;1776;53.330;11.498;2023-01-30T13:29:30;21087.25;;;-147.39;77.67
3524;BME280;1776;53.330;11.498;2023-01-30T13:31:59;21131.97;;;-147.39;77.50
3524;BME280;1776;53.330;11.498;2023-01-30T13:34:33;21123.84;;;-147.39;77.40
3524;BME280;1776;53.330;11.498;2023-01-30T13:37:02;21138.06;;;-147.39;77.56
3524;BME280;1776;53.330;11.498;2023-01-30T13:42:06;21125.88;;;-147.39;77.08
3524;BME280;1776;53.330;11.498;2023-01-30T13:44:35;21215.25;;;-147.39;75.98
3524;BME280;1776;53.330;11.498;2023-01-30T13:47:53;21290.44;;;-147.39;75.35
3524;BME280;1776;53.330;11.498;2023-01-30T13:52:52;21276.22;;;-147.39;74.98
3524;BME280;1776;53.330;11.498;2023-01-30T13:55:46;21343.28;;;-147.39;74.35
3524;BME280;1776;53.330;11.498;2023-01-30T13:58:43;21412.34;;;-147.39;73.98
3524;BME280;1776;53.330;11.498;2023-01-30T14:01:12;21365.63;;;-147.39;73.88
3524;BME280;1776;53.330;11.498;2023-01-30T14:03:39;21420.47;;;-147.39;74.10
3524;BME280;1776;53.330;11.498;2023-01-30T14:06:09;21408.28;;;-147.39;73.79
3524;BME280;1776;53.330;11.498;2023-01-30T14:13:58;21422.50;;;-147.39;73.96
3524;BME280;1776;53.330;11.498;2023-01-30T14:16:39;21483.47;;;-147.39;74.49
3524;BME280;1776;53.330;11.498;2023-01-30T14:21:55;21373.75;;;-147.39;74.82
3524;BME280;1776;53.330;11.498;2023-01-30T14:24:22;21418.44;;;-147.39;74.75
3524;BME280;1776;53.330;11.498;2023-01-30T14:32:06;21353.44;;;-147.39;74.69
3524;BME280;1776;53.330;11.498;2023-01-30T14:37:43;21349.38;;;-147.39;75.35
3524;BME280;1776;53.330;11.498;2023-01-30T14:48:38;21150.25;;;-147.39;78.28
3524;BME280;1776;53.330;11.498;2023-01-30T14:56:15;21066.94;;;-147.39;79.44
3524;BME280;1776;53.330;11.498;2023-01-30T14:59:02;21024.28;;;-147.39;79.62
3524;BME280;1776;53.330;11.498;2023-01-30T15:10:00;21207.13;;;-147.39;79.66
3524;BME280;1776;53.330;11.498;2023-01-30T15:32:25;21117.75;;;-147.39;80.16
3524;BME280;1776;53.330;11.498;2023-01-30T15:34:54;20957.25;;;-147.39;80.47
3524;BME280;1776;53.330;11.498;2023-01-30T15:37:31;20959.28;;;-147.39;80.43